Time;durP1;ratioP1;P1;durP2;ratioP2;P2;SDS_P1;SDS_P2;PMS_P1;PMS_P2;Temp;Humidity;BMP_temperature;BMP_pressure;BME280_temperature;BME280_humidity;BME280_pressure;Samples;Min_cycle;Max_cycle;Signal;HPM_P1;HPM_P2
2022/01/14 00:02:04;;;;;;;11.17;5.97;;;6.50;99.90;;;;;;5025958;28;20208;-51
2022/01/14 00:04:31;;;;;;;17.83;6.10;;;6.50;99.90;;;;;;5038038;28;20220;-51
2022/01/14 00:06:58;;;;;;;17.20;6.03;;;6.50;99.90;;;;;;5041209;28;20204;-51
2022/01/14 00:09:27;;;;;;;16.97;5.77;;;6.50;99.90;;;;;;5027402;28;20214;-52
2022/01/14 00:11:57;;;;;;;14.73;5.97;;;6.50;99.90;;;;;;5012248;28;20785;-51
2022/01/14 00:14:37;;;;;;;16.70;5.97;;;6.50;99.90;;;;;;5032600;28;20246;-51
2022/01/14 00:17:04;;;;;;;14.97;6.37;;;6.50;99.90;;;;;;5026346;28;20860;-52
2022/01/14 00:19:31;;;;;;;10.87;5.23;;;6.50;99.90;;;;;;5035979;28;20695;-51
2022/01/14 00:21:59;;;;;;;17.57;5.97;;;6.50;99.90;;;;;;5034115;28;20910;-51
2022/01/14 00:31:37;;;;;;;8.87;4.63;;;6.50;99.90;;;;;;5035948;28;20280;-51
2022/01/14 00:32:51;;;;;;;15.50;5.87;;;6.50;99.90;;;;;;5016221;28;20314;-51
2022/01/14 00:35:17;;;;;;;14.47;6.20;;;6.50;99.90;;;;;;5036334;28;20302;-51
2022/01/14 00:37:44;;;;;;;17.43;6.07;;;6.50;99.90;;;;;;5047771;28;21019;-50
2022/01/14 00:40:14;;;;;;;13.43;5.40;;;6.50;99.90;;;;;;5028329;28;20216;-51
2022/01/14 00:42:41;;;;;;;19.60;6.97;;;6.40;99.90;;;;;;5036779;28;20229;-50
2022/01/14 00:45:10;;;;;;;11.47;6.60;;;6.40;99.90;;;;;;5024537;28;21379;-51
2022/01/14 00:47:37;;;;;;;16.50;6.93;;;6.40;99.90;;;;;;5051973;28;20208;-49
2022/01/14 00:50:05;;;;;;;15.83;6.53;;;6.40;99.90;;;;;;5030387;28;20213;-51
2022/01/14 00:52:32;;;;;;;15.10;6.93;;;6.40;99.90;;;;;;5034719;28;20224;-51
2022/01/14 00:54:59;;;;;;;14.03;6.23;;;6.40;99.90;;;;;;5039328;28;20208;-50
2022/01/14 00:59:14;;;;;;;11.63;6.53;;;6.40;99.90;;;;;;5024211;28;20205;-51
2022/01/14 01:00:15;;;;;;;15.43;6.37;;;6.40;99.90;;;;;;5028593;28;20256;-51
2022/01/14 01:02:41;;;;;;;16.50;6.07;;;6.40;99.90;;;;;;5035054;28;20223;-51
2022/01/14 01:05:09;;;;;;;12.27;6.53;;;6.40;99.90;;;;;;5033010;28;20333;-51
2022/01/14 01:07:38;;;;;;;19.33;6.63;;;6.40;99.90;;;;;;5036389;28;20218;-51
2022/01/14 01:10:05;;;;;;;13.30;6.10;;;6.40;99.90;;;;;;5037613;28;20211;-51
2022/01/14 01:12:40;;;;;;;17.57;6.47;;;6.40;99.90;;;;;;5021394;28;20227;-51
2022/01/14 01:15:12;;;;;;;14.77;7.00;;;6.40;99.90;;;;;;5030844;28;20207;-51
2022/01/14 01:17:39;;;;;;;17.20;7.00;;;6.40;99.90;;;;;;5051521;28;20201;-52
2022/01/14 01:20:13;;;;;;;20.63;6.30;;;6.40;99.90;;;;;;5030143;28;20218;-52
2022/01/14 01:22:40;;;;;;;17.60;6.77;;;6.40;99.90;;;;;;5034208;28;20229;-51
2022/01/14 01:25:09;;;;;;;15.70;6.87;;;6.40;99.90;;;;;;5045858;28;20215;-51
2022/01/14 01:27:40;;;;;;;18.40;8.13;;;6.40;99.90;;;;;;5017210;28;20214;-51
2022/01/14 01:30:15;;;;;;;16.60;6.93;;;6.40;99.90;;;;;;5030242;28;20212;-51
2022/01/14 01:32:46;;;;;;;15.37;6.73;;;6.50;99.90;;;;;;5033834;28;20216;-51
2022/01/14 01:35:13;;;;;;;13.50;7.10;;;6.40;99.90;;;;;;5031002;28;20217;-51
2022/01/14 01:37:40;;;;;;;12.23;6.43;;;6.40;99.90;;;;;;5039203;28;20208;-51
2022/01/14 01:40:08;;;;;;;16.43;7.60;;;6.40;99.90;;;;;;5047109;28;20208;-51
2022/01/14 01:42:37;;;;;;;16.33;6.83;;;6.40;99.90;;;;;;5022089;28;20229;-52
2022/01/14 01:45:09;;;;;;;18.07;6.87;;;6.40;99.90;;;;;;5046168;28;20955;-46
2022/01/14 01:47:37;;;;;;;16.00;7.10;;;6.40;99.90;;;;;;5040115;28;20890;-47
2022/01/14 01:50:10;;;;;;;15.67;7.13;;;6.40;99.90;;;;;;5044785;28;20207;-46
2022/01/14 01:52:37;;;;;;;14.50;7.13;;;6.40;99.90;;;;;;5023349;28;20243;-47
2022/01/14 01:55:05;;;;;;;15.10;6.93;;;6.40;99.90;;;;;;5042735;28;20202;-46
2022/01/14 01:57:32;;;;;;;19.97;7.50;;;6.40;99.90;;;;;;5041310;28;20226;-46
2022/01/14 02:00:01;;;;;;;15.00;6.57;;;6.40;99.90;;;;;;5032318;28;20916;-46
2022/01/14 02:02:28;;;;;;;20.30;7.13;;;6.40;99.90;;;;;;5030146;28;20224;-46
2022/01/14 02:04:55;;;;;;;12.90;7.27;;;6.40;99.90;;;;;;5036116;28;20217;-46
2022/01/14 02:07:22;;;;;;;13.67;6.93;;;6.40;99.90;;;;;;5018329;28;20413;-46
2022/01/14 02:09:48;;;;;;;18.43;7.47;;;6.40;99.90;;;;;;5045479;28;20208;-46
2022/01/14 02:12:17;;;;;;;18.50;7.07;;;6.40;99.90;;;;;;5038324;28;20229;-46
2022/01/14 02:15:07;;;;;;;14.47;7.63;;;6.40;99.90;;;;;;5032896;28;20771;-46
2022/01/14 02:17:47;;;;;;;11.87;6.93;;;6.30;99.90;;;;;;5035092;28;20205;-49
2022/01/14 02:23:04;;;;;;;16.87;8.27;;;6.40;99.90;;;;;;5032671;28;20255;-46
2022/01/14 02:25:32;;;;;;;17.70;8.47;;;6.40;99.90;;;;;;5043117;28;20274;-46
2022/01/14 02:28:01;;;;;;;15.37;7.30;;;6.40;99.90;;;;;;5039675;28;20212;-46
2022/01/14 02:30:30;;;;;;;11.90;7.60;;;6.30;99.90;;;;;;5021338;28;20973;-46
2022/01/14 02:32:57;;;;;;;18.83;7.83;;;6.40;99.90;;;;;;5033481;28;20224;-48
2022/01/14 02:35:26;;;;;;;14.50;7.13;;;6.30;99.90;;;;;;5030976;28;20213;-48
2022/01/14 02:37:53;;;;;;;21.80;7.93;;;6.30;99.90;;;;;;5022181;28;20205;-50
2022/01/14 02:40:21;;;;;;;14.37;7.47;;;6.30;99.90;;;;;;5036289;28;20208;-49
2022/01/14 02:42:48;;;;;;;14.13;7.43;;;6.30;99.90;;;;;;5035156;28;20236;-48
2022/01/14 02:45:16;;;;;;;17.67;7.73;;;6.30;99.90;;;;;;5031900;28;20205;-48
2022/01/14 02:47:43;;;;;;;14.33;8.13;;;6.30;99.90;;;;;;5048499;28;20299;-48
2022/01/14 02:50:16;;;;;;;17.17;8.00;;;6.30;99.90;;;;;;5031335;28;20242;-48
2022/01/14 02:52:56;;;;;;;15.30;8.60;;;6.30;99.90;;;;;;5038703;28;20229;-48
2022/01/14 02:55:29;;;;;;;21.17;8.57;;;6.30;99.90;;;;;;5025907;28;20215;-48
2022/01/14 02:57:57;;;;;;;21.40;8.03;;;6.30;99.90;;;;;;5034986;28;20669;-48
2022/01/14 03:00:31;;;;;;;16.33;7.77;;;6.30;99.90;;;;;;5033436;28;20204;-44
2022/01/14 03:03:00;;;;;;;14.50;7.63;;;6.30;99.90;;;;;;5042393;28;20234;-45
2022/01/14 03:05:29;;;;;;;21.80;7.77;;;6.40;99.90;;;;;;5034235;28;20208;-44
2022/01/14 03:07:59;;;;;;;23.27;7.77;;;6.30;99.90;;;;;;5032472;28;20582;-44
2022/01/14 03:10:26;;;;;;;20.03;7.90;;;6.30;99.90;;;;;;5025685;28;20947;-51
2022/01/14 03:12:53;;;;;;;14.43;8.10;;;6.30;99.90;;;;;;5044351;28;20222;-51
2022/01/14 03:15:20;;;;;;;16.47;7.80;;;6.30;99.90;;;;;;5020969;28;23408;-51
2022/01/14 03:17:47;;;;;;;15.07;7.77;;;6.30;99.90;;;;;;5048569;28;20418;-51
2022/01/14 03:20:36;;;;;;;15.80;7.50;;;6.30;99.90;;;;;;5022519;28;22433;-51
2022/01/14 03:23:06;;;;;;;13.23;7.33;;;6.30;99.90;;;;;;5037469;28;20224;-51
2022/01/14 03:28:55;;;;;;;13.13;7.10;;;6.40;99.90;;;;;;5042413;28;20211;-51
2022/01/14 03:31:22;;;;;;;16.87;6.97;;;6.40;99.90;;;;;;5018108;28;20216;-51
2022/01/14 03:33:49;;;;;;;19.30;7.83;;;6.30;99.90;;;;;;5033866;28;20220;-51
2022/01/14 03:36:16;;;;;;;16.57;7.37;;;6.40;99.90;;;;;;5030235;28;20318;-51
2022/01/14 03:38:44;;;;;;;17.33;6.83;;;6.40;99.90;;;;;;5036471;28;21120;-51
2022/01/14 03:41:11;;;;;;;18.50;6.67;;;6.40;99.90;;;;;;5031045;28;20213;-51
2022/01/14 03:43:40;;;;;;;16.60;7.50;;;6.40;99.90;;;;;;5032856;28;20205;-46
2022/01/14 03:46:07;;;;;;;18.33;7.87;;;6.30;99.90;;;;;;5045160;28;20871;-46
2022/01/14 03:48:34;;;;;;;14.27;7.63;;;6.30;99.90;;;;;;5034321;28;20203;-46
2022/01/14 03:51:01;;;;;;;17.10;7.13;;;6.30;99.90;;;;;;5031559;28;20209;-46
2022/01/14 03:53:28;;;;;;;16.53;7.30;;;6.30;99.90;;;;;;5046089;28;20224;-46
2022/01/14 03:55:56;;;;;;;15.83;6.90;;;6.30;99.90;;;;;;5041796;28;20197;-46
2022/01/14 03:58:23;;;;;;;17.20;7.50;;;6.30;99.90;;;;;;5032121;28;20219;-45
2022/01/14 04:00:50;;;;;;;16.20;7.23;;;6.30;99.90;;;;;;5031654;28;20209;-44
2022/01/14 04:03:17;;;;;;;20.10;7.03;;;6.30;99.90;;;;;;5037938;28;20225;-45
2022/01/14 04:05:44;;;;;;;11.93;6.90;;;6.30;99.90;;;;;;5031074;28;20215;-44
2022/01/14 04:08:10;;;;;;;15.53;6.93;;;6.30;99.90;;;;;;5046795;28;20569;-44
2022/01/14 04:10:37;;;;;;;21.10;6.90;;;6.30;99.90;;;;;;5039128;28;20207;-44
2022/01/14 04:13:13;;;;;;;16.77;6.13;;;6.30;99.90;;;;;;5024708;28;20233;-44
2022/01/14 04:15:42;;;;;;;14.37;6.13;;;6.30;99.90;;;;;;5039389;28;20209;-44
2022/01/14 04:18:12;;;;;;;16.40;6.47;;;6.30;99.90;;;;;;5035748;28;20701;-45
2022/01/14 04:20:40;;;;;;;11.53;6.10;;;6.30;99.90;;;;;;5033669;28;20202;-44
2022/01/14 04:23:08;;;;;;;11.87;6.07;;;6.20;99.90;;;;;;5046618;28;20225;-44
2022/01/14 04:25:35;;;;;;;14.37;6.03;;;6.20;99.90;;;;;;5045226;28;20778;-44
2022/01/14 04:28:03;;;;;;;11.63;6.03;;;6.30;99.90;;;;;;5027512;28;20222;-44
2022/01/14 04:30:31;;;;;;;14.20;5.67;;;6.20;99.90;;;;;;5041472;28;20212;-45
2022/01/14 04:32:58;;;;;;;21.63;6.13;;;6.20;99.90;;;;;;5030168;28;20229;-44
2022/01/14 04:35:25;;;;;;;12.00;6.27;;;6.20;99.90;;;;;;5032578;28;20228;-44
2022/01/14 04:37:52;;;;;;;24.37;6.37;;;6.20;99.90;;;;;;5040323;28;20201;-44
2022/01/14 04:40:19;;;;;;;15.03;6.33;;;6.20;99.90;;;;;;5041766;28;20213;-45
2022/01/14 04:42:46;;;;;;;12.73;6.00;;;6.20;99.90;;;;;;5047732;28;20228;-44
2022/01/14 04:45:27;;;;;;;13.30;6.57;;;6.30;99.90;;;;;;5017602;28;20217;-44
2022/01/14 04:47:56;;;;;;;13.83;5.90;;;6.30;99.90;;;;;;5040639;28;20214;-44
2022/01/14 04:50:24;;;;;;;13.73;6.03;;;6.30;99.90;;;;;;5037369;28;20594;-44
2022/01/14 04:52:52;;;;;;;11.47;6.83;;;6.20;99.90;;;;;;5035947;28;20240;-45
2022/01/14 04:55:22;;;;;;;14.03;6.40;;;6.20;99.90;;;;;;5034628;28;20228;-45
2022/01/14 04:57:49;;;;;;;10.20;5.97;;;6.30;99.90;;;;;;5047227;28;20346;-45
2022/01/14 05:00:18;;;;;;;14.10;6.53;;;6.20;99.90;;;;;;5027246;28;20678;-50
2022/01/14 05:02:46;;;;;;;15.33;6.37;;;6.30;99.90;;;;;;5041500;28;20223;-52
2022/01/14 05:05:16;;;;;;;13.00;6.17;;;6.30;99.90;;;;;;5020730;28;20208;-51
2022/01/14 05:07:46;;;;;;;11.50;6.37;;;6.30;99.90;;;;;;5033936;28;21816;-51
2022/01/14 05:10:25;;;;;;;12.50;6.20;;;6.20;99.90;;;;;;5017106;28;20232;-51
2022/01/14 05:12:53;;;;;;;15.57;7.23;;;6.20;99.90;;;;;;5043831;28;20226;-51
2022/01/14 05:15:21;;;;;;;16.17;7.10;;;6.30;99.90;;;;;;5013597;28;20221;-53
2022/01/14 05:17:48;;;;;;;20.93;8.30;;;6.30;99.90;;;;;;5044362;28;20219;-51
2022/01/14 05:20:18;;;;;;;13.57;7.37;;;6.20;99.90;;;;;;5023258;28;20217;-51
2022/01/14 05:22:45;;;;;;;16.43;7.37;;;6.20;99.90;;;;;;5031478;28;20225;-51
2022/01/14 05:25:15;;;;;;;18.40;8.80;;;6.20;99.90;;;;;;5030014;28;20199;-51
2022/01/14 05:27:42;;;;;;;17.10;7.73;;;6.30;99.90;;;;;;5044205;28;20205;-51
2022/01/14 05:30:11;;;;;;;16.40;8.63;;;6.30;99.90;;;;;;5028109;28;20218;-53
2022/01/14 05:32:46;;;;;;;18.63;8.20;;;6.30;99.90;;;;;;5008318;28;20955;-51
2022/01/14 05:35:14;;;;;;;24.23;7.73;;;6.30;99.90;;;;;;5016619;28;21551;-52
2022/01/14 05:37:42;;;;;;;17.07;7.77;;;6.30;99.90;;;;;;5031959;28;20248;-51
2022/01/14 05:40:09;;;;;;;18.97;8.23;;;6.30;99.90;;;;;;5021414;28;20212;-51
2022/01/14 05:42:36;;;;;;;17.33;8.60;;;6.30;99.90;;;;;;5046912;28;20228;-51
2022/01/14 05:45:04;;;;;;;19.70;8.67;;;6.40;99.90;;;;;;5024201;28;20203;-51
2022/01/14 05:47:31;;;;;;;20.50;8.53;;;6.30;99.90;;;;;;5033584;28;20233;-51
2022/01/14 05:49:58;;;;;;;16.67;7.73;;;6.30;99.90;;;;;;5032424;28;20667;-51
2022/01/14 05:52:25;;;;;;;18.77;9.17;;;6.30;99.90;;;;;;5034356;28;20223;-51
2022/01/14 05:54:53;;;;;;;17.73;8.73;;;6.40;99.90;;;;;;5031131;28;20223;-51
2022/01/14 05:57:21;;;;;;;19.10;8.80;;;6.30;99.90;;;;;;5034642;28;20881;-51
2022/01/14 05:59:48;;;;;;;17.40;9.23;;;6.40;99.90;;;;;;5030902;28;20212;-51
2022/01/14 06:02:16;;;;;;;21.27;9.53;;;6.30;99.90;;;;;;5023088;28;20681;-50
2022/01/14 06:04:45;;;;;;;14.83;8.40;;;6.30;99.90;;;;;;5027825;28;20315;-51
2022/01/14 06:07:12;;;;;;;20.13;8.87;;;6.30;99.90;;;;;;5031496;28;20217;-49
2022/01/14 06:09:40;;;;;;;14.80;9.03;;;6.30;99.90;;;;;;5007705;28;21321;-52
2022/01/14 06:12:09;;;;;;;12.33;9.13;;;6.30;99.90;;;;;;5032048;28;20256;-51
2022/01/14 06:14:36;;;;;;;15.00;7.80;;;6.30;99.90;;;;;;5039965;28;20221;-51
2022/01/14 06:17:03;;;;;;;16.73;9.17;;;6.30;99.90;;;;;;5012704;28;20217;-51
2022/01/14 06:19:30;;;;;;;18.17;9.03;;;6.30;99.90;;;;;;5024226;28;20787;-51
2022/01/14 06:21:57;;;;;;;15.73;9.03;;;6.30;99.90;;;;;;5019766;28;20541;-51
2022/01/14 06:24:24;;;;;;;21.43;9.47;;;6.30;99.90;;;;;;5017581;28;20204;-51
2022/01/14 06:26:51;;;;;;;24.93;9.47;;;6.30;99.90;;;;;;5026738;28;20875;-50
2022/01/14 06:29:20;;;;;;;19.90;9.93;;;6.30;99.90;;;;;;5040242;28;20210;-52
2022/01/14 06:31:46;;;;;;;24.43;9.07;;;6.30;99.90;;;;;;5026813;28;20236;-51
2022/01/14 06:34:14;;;;;;;18.53;9.70;;;6.40;99.90;;;;;;5034567;28;20225;-50
2022/01/14 06:36:41;;;;;;;13.40;8.33;;;6.30;99.90;;;;;;5020783;28;20216;-51
2022/01/14 06:39:08;;;;;;;19.83;9.13;;;6.40;99.90;;;;;;5032817;28;20217;-49
2022/01/14 06:41:35;;;;;;;20.73;9.40;;;6.30;99.90;;;;;;5028315;28;20232;-51
2022/01/14 06:44:03;;;;;;;21.70;9.93;;;6.30;99.90;;;;;;5050509;28;20209;-51
2022/01/14 06:46:31;;;;;;;18.87;8.20;;;6.30;99.90;;;;;;5030299;28;20206;-51
2022/01/14 06:48:58;;;;;;;18.20;10.40;;;6.30;99.90;;;;;;5026230;28;20225;-51
2022/01/14 06:51:25;;;;;;;21.63;9.83;;;6.30;99.90;;;;;;5046983;28;20295;-51
2022/01/14 06:53:52;;;;;;;18.20;8.97;;;6.30;99.90;;;;;;5017887;28;20212;-52
2022/01/14 06:56:19;;;;;;;19.43;9.60;;;6.30;99.90;;;;;;5011440;28;20228;-51
2022/01/14 06:58:46;;;;;;;23.67;9.30;;;6.30;99.90;;;;;;5050040;28;20207;-53
2022/01/14 07:01:13;;;;;;;21.70;9.13;;;6.30;99.90;;;;;;5033585;28;21308;-51
2022/01/14 07:03:41;;;;;;;17.97;8.13;;;6.30;99.90;;;;;;5034182;28;20588;-51
2022/01/14 07:06:08;;;;;;;19.63;8.73;;;6.30;99.90;;;;;;5035853;28;20208;-51
2022/01/14 07:08:35;;;;;;;18.43;8.90;;;6.30;99.90;;;;;;5035064;28;22883;-51
2022/01/14 07:11:03;;;;;;;20.10;9.07;;;6.30;99.90;;;;;;5040638;28;20202;-51
2022/01/14 07:13:30;;;;;;;15.77;8.50;;;6.40;99.90;;;;;;5037665;28;20285;-51
2022/01/14 07:15:57;;;;;;;15.40;8.63;;;6.30;99.90;;;;;;5050148;28;20213;-50
2022/01/14 07:18:24;;;;;;;17.77;8.57;;;6.40;99.90;;;;;;5027845;28;20215;-51
2022/01/14 07:20:52;;;;;;;20.50;8.43;;;6.30;99.90;;;;;;5037485;28;20216;-51
2022/01/14 07:23:19;;;;;;;26.87;8.87;;;6.30;99.90;;;;;;5044847;28;20224;-51
2022/01/14 07:25:46;;;;;;;22.50;8.50;;;6.30;99.90;;;;;;5036704;28;20213;-51
2022/01/14 07:28:13;;;;;;;24.13;9.13;;;6.30;99.90;;;;;;5036472;28;20205;-52
2022/01/14 07:30:40;;;;;;;16.80;8.03;;;6.40;99.90;;;;;;5043845;28;20204;-51
2022/01/14 07:33:06;;;;;;;15.93;8.80;;;6.40;99.90;;;;;;5031738;28;20729;-45
2022/01/14 07:35:33;;;;;;;15.33;8.27;;;6.40;99.90;;;;;;5034318;28;20226;-45
2022/01/14 07:38:02;;;;;;;19.07;8.03;;;6.40;99.90;;;;;;5043318;28;20240;-45
2022/01/14 07:40:28;;;;;;;16.83;8.40;;;6.40;99.90;;;;;;5032143;28;20209;-45
2022/01/14 07:42:55;;;;;;;20.33;9.33;;;6.40;99.90;;;;;;5032080;28;20423;-45
2022/01/14 07:45:22;;;;;;;18.63;7.93;;;6.40;99.90;;;;;;5044610;28;20802;-44
2022/01/14 07:47:49;;;;;;;19.07;8.40;;;6.40;99.90;;;;;;5039692;28;20912;-45
2022/01/14 07:50:16;;;;;;;21.67;8.10;;;6.40;99.90;;;;;;5055825;28;20213;-45
2022/01/14 07:52:43;;;;;;;15.00;7.77;;;6.40;99.90;;;;;;5040026;28;20235;-47
2022/01/14 07:55:12;;;;;;;17.07;7.57;;;6.50;99.90;;;;;;5043854;28;20277;-46
2022/01/14 07:57:39;;;;;;;19.20;7.03;;;6.50;99.90;;;;;;5049227;28;20215;-45
2022/01/14 08:00:08;;;;;;;14.10;6.10;;;6.50;99.90;;;;;;5040500;28;20204;-45
2022/01/14 08:02:35;;;;;;;13.73;7.20;;;6.50;99.90;;;;;;5058382;28;20713;-44
2022/01/14 08:05:02;;;;;;;16.73;6.60;;;6.50;99.90;;;;;;5038339;28;20704;-45
2022/01/14 08:07:30;;;;;;;14.90;7.20;;;6.50;99.90;;;;;;5041870;28;20304;-44
2022/01/14 08:09:57;;;;;;;13.93;5.97;;;6.60;99.90;;;;;;5030941;28;21062;-45
2022/01/14 08:12:25;;;;;;;11.03;5.87;;;6.60;99.90;;;;;;5033262;28;20232;-45
2022/01/14 08:14:52;;;;;;;11.63;5.77;;;6.50;99.90;;;;;;5034521;28;20335;-44
2022/01/14 08:17:21;;;;;;;19.13;5.73;;;6.60;99.90;;;;;;5052345;28;20223;-45
2022/01/14 08:19:49;;;;;;;18.23;6.73;;;6.60;99.90;;;;;;5033164;28;20247;-49
2022/01/14 08:22:15;;;;;;;17.10;5.80;;;6.60;99.90;;;;;;5043387;28;20225;-48
2022/01/14 08:24:42;;;;;;;16.97;5.90;;;6.70;99.90;;;;;;5041304;28;20207;-48
2022/01/14 08:27:09;;;;;;;20.63;6.70;;;6.60;99.90;;;;;;5027298;28;20217;-48
2022/01/14 08:29:38;;;;;;;21.27;6.00;;;6.60;99.90;;;;;;5034919;28;20208;-49
2022/01/14 08:32:05;;;;;;;15.60;5.20;;;6.60;99.90;;;;;;5046847;28;20232;-49
2022/01/14 08:34:32;;;;;;;12.03;5.30;;;6.60;99.90;;;;;;5029062;28;20911;-48
2022/01/14 08:36:59;;;;;;;9.17;5.70;;;6.60;99.90;;;;;;5051854;28;20214;-48
2022/01/14 08:39:26;;;;;;;13.17;5.13;;;6.60;99.90;;;;;;5041691;28;20212;-48
2022/01/14 08:41:55;;;;;;;15.13;5.57;;;6.60;99.90;;;;;;5029391;28;20263;-49
2022/01/14 08:44:22;;;;;;;13.20;5.37;;;6.70;99.90;;;;;;5041134;28;20185;-49
2022/01/14 08:46:50;;;;;;;12.50;4.70;;;6.60;99.90;;;;;;5027963;28;20208;-48
2022/01/14 08:49:17;;;;;;;12.93;4.23;;;6.70;99.90;;;;;;5031111;28;20209;-48
2022/01/14 08:51:44;;;;;;;15.37;4.43;;;6.70;99.90;;;;;;5053068;28;20221;-48
2022/01/14 08:54:11;;;;;;;12.40;3.90;;;6.70;99.90;;;;;;5042282;28;20211;-48
2022/01/14 08:56:38;;;;;;;16.07;3.93;;;6.70;99.90;;;;;;5042219;28;20226;-48
2022/01/14 08:59:05;;;;;;;13.37;3.90;;;6.70;99.90;;;;;;5051322;28;20208;-49
2022/01/14 09:01:34;;;;;;;14.20;3.83;;;6.70;99.90;;;;;;5038478;28;20232;-49
2022/01/14 09:04:02;;;;;;;14.30;3.90;;;6.70;99.90;;;;;;5036366;28;20393;-48
2022/01/14 09:06:29;;;;;;;11.60;3.33;;;6.70;99.90;;;;;;5037607;28;20196;-48
2022/01/14 09:08:56;;;;;;;15.10;4.10;;;6.70;99.90;;;;;;5040295;28;20598;-49
2022/01/14 09:11:23;;;;;;;11.20;3.83;;;6.70;99.90;;;;;;5049636;28;20209;-48
2022/01/14 09:13:50;;;;;;;17.80;3.87;;;6.70;99.90;;;;;;5039468;28;20214;-49
2022/01/14 09:16:20;;;;;;;10.77;3.33;;;6.70;99.90;;;;;;5048446;28;20222;-49
2022/01/14 09:18:47;;;;;;;17.07;3.77;;;6.80;99.90;;;;;;5033862;28;20208;-49
2022/01/14 09:21:16;;;;;;;11.33;3.17;;;6.80;99.90;;;;;;5034989;28;20697;-49
2022/01/14 09:23:50;;;;;;;12.77;3.10;;;6.80;99.90;;;;;;5045151;28;20203;-49
2022/01/14 09:26:17;;;;;;;10.90;3.27;;;6.80;99.90;;;;;;5034556;28;20205;-49
2022/01/14 09:28:44;;;;;;;13.73;4.00;;;6.80;99.90;;;;;;5045050;28;20341;-49
2022/01/14 09:31:11;;;;;;;11.77;3.47;;;6.80;99.90;;;;;;5046513;28;21343;-48
2022/01/14 09:33:38;;;;;;;15.07;3.87;;;6.90;99.90;;;;;;5034970;28;20213;-49
2022/01/14 09:36:06;;;;;;;12.57;3.77;;;6.90;99.90;;;;;;5017819;28;20401;-48
2022/01/14 09:38:34;;;;;;;13.13;3.50;;;6.90;99.90;;;;;;5044154;28;20266;-48
2022/01/14 09:41:01;;;;;;;12.13;3.00;;;6.90;99.90;;;;;;5054077;28;20208;-49
2022/01/14 09:43:30;;;;;;;11.73;3.10;;;6.90;99.90;;;;;;5030117;28;20227;-49
2022/01/14 09:45:57;;;;;;;11.33;3.27;;;6.90;99.90;;;;;;5045960;28;20202;-45
2022/01/14 09:48:24;;;;;;;13.30;3.40;;;6.90;99.90;;;;;;5023232;28;20214;-45
2022/01/14 09:50:51;;;;;;;9.33;3.50;;;7.00;99.90;;;;;;5029901;28;20679;-44
2022/01/14 09:53:18;;;;;;;7.23;3.20;;;6.90;99.90;;;;;;5021309;28;20228;-45
2022/01/14 09:55:46;;;;;;;12.17;3.40;;;7.00;99.90;;;;;;5054412;28;20218;-46
2022/01/14 09:58:13;;;;;;;11.90;4.00;;;7.00;99.90;;;;;;5019759;28;20214;-46
2022/01/14 10:00:40;;;;;;;8.00;3.37;;;7.00;99.90;;;;;;5048378;28;20212;-45
2022/01/14 10:03:22;;;;;;;10.63;2.50;;;7.00;99.90;;;;;;5041584;28;20242;-45
2022/01/14 10:05:51;;;;;;;11.60;3.30;;;7.00;99.90;;;;;;5038016;28;20679;-45
2022/01/14 10:08:23;;;;;;;10.60;2.97;;;7.00;99.90;;;;;;5020415;28;20207;-45
2022/01/14 10:10:56;;;;;;;7.10;2.93;;;7.00;99.90;;;;;;5045125;28;20836;-44
2022/01/14 10:13:26;;;;;;;7.73;3.23;;;7.00;99.90;;;;;;5034816;28;20227;-45
2022/01/14 10:15:59;;;;;;;15.43;3.43;;;7.00;99.90;;;;;;5046087;28;20775;-45
2022/01/14 10:18:26;;;;;;;11.63;2.90;;;7.00;99.90;;;;;;5057638;28;20211;-47
2022/01/14 10:20:53;;;;;;;10.67;2.90;;;7.00;99.90;;;;;;5040704;28;20209;-47
2022/01/14 10:23:39;;;;;;;10.83;3.50;;;7.10;99.90;;;;;;5031449;28;21104;-50
2022/01/14 10:26:08;;;;;;;13.17;3.63;;;7.10;99.90;;;;;;5041778;28;20207;-47
2022/01/14 10:28:35;;;;;;;15.73;3.10;;;7.10;99.90;;;;;;5045348;28;20247;-47
2022/01/14 10:31:04;;;;;;;7.30;2.33;;;7.10;99.90;;;;;;5035671;28;20963;-47
2022/01/14 10:33:31;;;;;;;13.70;3.17;;;7.10;99.90;;;;;;5029731;28;20228;-47
2022/01/14 10:35:58;;;;;;;9.43;2.60;;;7.10;99.90;;;;;;5032931;28;20224;-48
2022/01/14 10:38:28;;;;;;;11.10;3.33;;;7.10;99.90;;;;;;5055707;28;20281;-44
2022/01/14 10:40:58;;;;;;;9.33;3.17;;;7.10;99.90;;;;;;5025291;28;20223;-44
2022/01/14 10:43:35;;;;;;;9.13;2.77;;;7.10;99.90;;;;;;5045425;28;20836;-47
2022/01/14 10:46:05;;;;;;;11.10;3.63;;;7.10;99.90;;;;;;5023431;28;20212;-50
2022/01/14 10:48:35;;;;;;;7.47;2.50;;;7.20;99.90;;;;;;5033987;28;20986;-48
2022/01/14 10:51:04;;;;;;;6.73;2.80;;;7.20;99.90;;;;;;5017635;28;20220;-48
2022/01/14 10:53:34;;;;;;;9.10;3.07;;;7.20;99.90;;;;;;5050458;28;20839;-47
2022/01/14 10:56:03;;;;;;;13.27;3.40;;;7.20;99.90;;;;;;5024079;28;20232;-47
2022/01/14 10:58:34;;;;;;;9.17;2.97;;;7.20;99.90;;;;;;5028216;28;20212;-47
2022/01/14 11:01:05;;;;;;;12.60;3.07;;;7.20;99.90;;;;;;5036940;28;20205;-47
2022/01/14 11:03:37;;;;;;;11.87;3.37;;;7.20;99.90;;;;;;5042200;28;20383;-47
2022/01/14 11:06:17;;;;;;;14.47;3.07;;;7.20;99.90;;;;;;5021387;28;20204;-47
2022/01/14 11:08:45;;;;;;;8.97;3.10;;;7.30;99.90;;;;;;5041113;28;20204;-47
2022/01/14 11:11:13;;;;;;;12.73;3.27;;;7.30;99.90;;;;;;5024461;28;20242;-48
2022/01/14 11:13:43;;;;;;;13.50;3.30;;;7.30;99.90;;;;;;5052495;28;20212;-48
2022/01/14 11:16:10;;;;;;;9.13;3.20;;;7.30;99.90;;;;;;5037364;28;21251;-49
2022/01/14 11:18:38;;;;;;;9.80;2.53;;;7.30;99.90;;;;;;5048970;28;20295;-49
2022/01/14 11:23:50;;;;;;;11.60;2.77;;;7.30;99.90;;;;;;5046379;28;20904;-49
2022/01/14 11:26:20;;;;;;;7.03;2.83;;;7.30;99.90;;;;;;5025688;28;20212;-49
2022/01/14 11:28:49;;;;;;;9.63;3.00;;;7.30;99.90;;;;;;5025012;28;20219;-49
2022/01/14 11:31:26;;;;;;;19.63;4.17;;;7.40;99.90;;;;;;5038656;28;20217;-49
2022/01/14 11:33:54;;;;;;;14.40;3.33;;;7.40;99.90;;;;;;5044110;28;20208;-49
2022/01/14 11:36:21;;;;;;;25.80;4.20;;;7.40;99.90;;;;;;5025946;28;20220;-52
2022/01/14 11:38:49;;;;;;;10.30;3.23;;;7.40;99.90;;;;;;5032854;28;20324;-45
2022/01/14 11:41:18;;;;;;;12.23;4.20;;;7.40;99.90;;;;;;5052089;28;20213;-46
2022/01/14 11:43:49;;;;;;;11.93;3.53;;;7.40;99.90;;;;;;5019061;28;20695;-45
2022/01/14 11:46:32;;;;;;;7.90;3.33;;;7.40;99.90;;;;;;5043238;28;20225;-46
2022/01/14 11:49:00;;;;;;;13.23;3.77;;;7.40;99.90;;;;;;5037216;28;20287;-45
2022/01/14 11:51:27;;;;;;;11.03;3.37;;;7.40;99.90;;;;;;5018308;28;20892;-48
2022/01/14 11:53:56;;;;;;;10.97;4.83;;;7.40;99.90;;;;;;5047166;28;20318;-46
2022/01/14 11:56:48;;;;;;;15.80;4.27;;;7.40;99.90;;;;;;5036574;28;20807;-45
2022/01/14 11:59:39;;;;;;;11.43;4.53;;;7.40;99.90;;;;;;5038773;28;20211;-45
2022/01/14 12:02:40;;;;;;;13.80;4.13;;;7.40;99.90;;;;;;5038837;28;20235;-47
2022/01/14 12:05:24;;;;;;;11.23;3.80;;;7.40;99.90;;;;;;4978230;28;20319;-45
2022/01/14 12:08:15;;;;;;;20.57;4.47;;;7.50;99.90;;;;;;5021699;28;20270;-45
2022/01/14 12:10:43;;;;;;;11.07;4.20;;;7.50;99.90;;;;;;5047504;28;20212;-45
2022/01/14 12:13:22;;;;;;;7.03;4.00;;;7.50;99.90;;;;;;5032996;28;20231;-46
2022/01/14 12:15:58;;;;;;;13.73;3.93;;;7.50;99.90;;;;;;5033130;28;20350;-46
2022/01/14 12:19:21;;;;;;;14.10;4.10;;;7.50;99.90;;;;;;5040350;28;20204;-46
2022/01/14 12:22:05;;;;;;;17.50;4.10;;;7.50;99.90;;;;;;5030418;28;20714;-46
2022/01/14 12:24:37;;;;;;;13.57;4.80;;;7.50;99.90;;;;;;5043427;28;20214;-46
2022/01/14 12:27:22;;;;;;;11.47;4.10;;;7.60;99.90;;;;;;5039859;28;20287;-45
2022/01/14 12:29:50;;;;;;;16.93;4.10;;;7.60;99.90;;;;;;5022638;28;20217;-46
2022/01/14 12:32:21;;;;;;;11.03;3.77;;;7.60;99.90;;;;;;5040501;28;20228;-48
2022/01/14 12:35:06;;;;;;;13.57;3.93;;;7.60;99.90;;;;;;5039765;28;20213;-46
2022/01/14 12:37:35;;;;;;;10.70;3.77;;;7.70;99.90;;;;;;5036403;28;20259;-46
2022/01/14 12:40:06;;;;;;;12.73;3.50;;;7.60;99.90;;;;;;5033150;28;20205;-45
2022/01/14 12:42:34;;;;;;;6.07;3.43;;;7.60;99.90;;;;;;5048154;28;20228;-45
2022/01/14 12:45:03;;;;;;;9.43;3.90;;;7.60;99.90;;;;;;5016703;28;20303;-46
2022/01/14 12:47:34;;;;;;;13.00;3.33;;;7.60;99.90;;;;;;5046851;28;20845;-52
2022/01/14 12:50:04;;;;;;;10.60;4.17;;;7.70;99.90;;;;;;5034275;28;20794;-52
2022/01/14 12:52:38;;;;;;;12.53;4.23;;;8.10;99.90;;;;;;5031406;28;20901;-52
2022/01/14 12:55:06;;;;;;;12.43;4.30;;;8.30;99.90;;;;;;5041764;28;20205;-52
2022/01/14 12:57:33;;;;;;;9.93;4.13;;;8.20;99.90;;;;;;5034923;28;20282;-52
2022/01/14 13:00:01;;;;;;;12.57;3.97;;;8.00;99.90;;;;;;5032220;28;20212;-52
2022/01/14 13:02:31;;;;;;;9.63;3.40;;;7.90;99.90;;;;;;5014702;28;20314;-52
2022/01/14 13:05:04;;;;;;;10.43;3.47;;;7.90;99.90;;;;;;5023527;28;20258;-51
2022/01/14 13:07:32;;;;;;;13.60;3.50;;;7.90;99.90;;;;;;5032854;28;20204;-52
2022/01/14 13:09:59;;;;;;;11.87;3.13;;;7.80;99.90;;;;;;5042136;28;20222;-52
2022/01/14 13:12:30;;;;;;;11.10;3.67;;;7.80;99.90;;;;;;5034045;28;20221;-52
2022/01/14 13:15:00;;;;;;;14.83;3.80;;;7.80;99.90;;;;;;5041005;28;20301;-52